sensor_id;sensor_type;location;lat;lon;timestamp;pressure;altitude;pressure_sealevel;temperature
8227;BMP180;4154;48.810;9.012;2023-06-22T00:00:58;97171.00;;;21.00
8227;BMP180;4154;48.810;9.012;2023-06-22T00:03:25;97174.00;;;20.90
8227;BMP180;4154;48.810;9.012;2023-06-22T00:05:52;97175.00;;;20.80
8227;BMP180;4154;48.810;9.012;2023-06-22T00:08:19;97155.00;;;20.80
8227;BMP180;4154;48.810;9.012;2023-06-22T00:10:46;97154.00;;;20.70
8227;BMP180;4154;48.810;9.012;2023-06-22T00:13:12;97165.00;;;20.70
8227;BMP180;4154;48.810;9.012;2023-06-22T00:15:40;97169.00;;;20.70
8227;BMP180;4154;48.810;9.012;2023-06-22T00:18:08;97189.00;;;20.60
8227;BMP180;4154;48.810;9.012;2023-06-22T00:20:35;97180.00;;;20.60
8227;BMP180;4154;48.810;9.012;2023-06-22T00:23:05;97181.00;;;20.60
8227;BMP180;4154;48.810;9.012;2023-06-22T00:25:36;97180.00;;;20.60
8227;BMP180;4154;48.810;9.012;2023-06-22T00:28:03;97171.00;;;20.60
8227;BMP180;4154;48.810;9.012;2023-06-22T00:30:30;97173.00;;;20.50
8227;BMP180;4154;48.810;9.012;2023-06-22T00:32:56;97172.00;;;20.50
8227;BMP180;4154;48.810;9.012;2023-06-22T00:35:22;97173.00;;;20.40
8227;BMP180;4154;48.810;9.012;2023-06-22T00:37:48;97158.00;;;20.50
8227;BMP180;4154;48.810;9.012;2023-06-22T00:40:13;97163.00;;;20.50
8227;BMP180;4154;48.810;9.012;2023-06-22T00:42:41;97179.00;;;20.40
8227;BMP180;4154;48.810;9.012;2023-06-22T00:45:07;97195.00;;;20.40
8227;BMP180;4154;48.810;9.012;2023-06-22T00:47:37;97188.00;;;20.40
8227;BMP180;4154;48.810;9.012;2023-06-22T00:50:06;97177.00;;;20.40
8227;BMP180;4154;48.810;9.012;2023-06-22T00:52:33;97188.00;;;20.50
8227;BMP180;4154;48.810;9.012;2023-06-22T00:55:02;97232.00;;;20.40
8227;BMP180;4154;48.810;9.012;2023-06-22T00:57:28;97247.00;;;20.40
8227;BMP180;4154;48.810;9.012;2023-06-22T00:59:54;97241.00;;;20.50
8227;BMP180;4154;48.810;9.012;2023-06-22T01:02:21;97239.00;;;20.50
8227;BMP180;4154;48.810;9.012;2023-06-22T01:04:47;97235.00;;;20.50
8227;BMP180;4154;48.810;9.012;2023-06-22T01:07:42;97219.00;;;20.50
8227;BMP180;4154;48.810;9.012;2023-06-22T01:10:24;97210.00;;;20.50
8227;BMP180;4154;48.810;9.012;2023-06-22T01:13:02;97201.00;;;20.50
8227;BMP180;4154;48.810;9.012;2023-06-22T01:16:17;97196.00;;;20.40
8227;BMP180;4154;48.810;9.012;2023-06-22T01:18:46;97198.00;;;20.40
8227;BMP180;4154;48.810;9.012;2023-06-22T01:21:17;97185.00;;;20.40
8227;BMP180;4154;48.810;9.012;2023-06-22T01:24:22;97180.00;;;20.40
8227;BMP180;4154;48.810;9.012;2023-06-22T01:27:14;97181.00;;;20.40
8227;BMP180;4154;48.810;9.012;2023-06-22T01:29:51;97180.00;;;20.30
8227;BMP180;4154;48.810;9.012;2023-06-22T01:32:19;97189.00;;;20.20
8227;BMP180;4154;48.810;9.012;2023-06-22T01:34:47;97185.00;;;20.20
8227;BMP180;4154;48.810;9.012;2023-06-22T01:37:14;97183.00;;;20.20
8227;BMP180;4154;48.810;9.012;2023-06-22T01:39:41;97183.00;;;20.10
8227;BMP180;4154;48.810;9.012;2023-06-22T01:42:07;97183.00;;;20.10
8227;BMP180;4154;48.810;9.012;2023-06-22T01:44:34;97183.00;;;20.10
8227;BMP180;4154;48.810;9.012;2023-06-22T01:47:00;97181.00;;;20.10
8227;BMP180;4154;48.810;9.012;2023-06-22T01:49:26;97186.00;;;20.10
8227;BMP180;4154;48.810;9.012;2023-06-22T01:51:53;97199.00;;;20.00
8227;BMP180;4154;48.810;9.012;2023-06-22T01:54:19;97191.00;;;20.00
8227;BMP180;4154;48.810;9.012;2023-06-22T01:56:45;97205.00;;;20.00
8227;BMP180;4154;48.810;9.012;2023-06-22T01:59:34;97197.00;;;19.90
8227;BMP180;4154;48.810;9.012;2023-06-22T02:02:10;97196.00;;;19.90
8227;BMP180;4154;48.810;9.012;2023-06-22T02:04:42;97215.00;;;19.90
8227;BMP180;4154;48.810;9.012;2023-06-22T02:07:17;97214.00;;;19.80
8227;BMP180;4154;48.810;9.012;2023-06-22T02:09:45;97204.00;;;19.80
8227;BMP180;4154;48.810;9.012;2023-06-22T02:12:17;97204.00;;;19.80
8227;BMP180;4154;48.810;9.012;2023-06-22T02:14:44;97199.00;;;19.70
8227;BMP180;4154;48.810;9.012;2023-06-22T02:17:12;97207.00;;;19.70
8227;BMP180;4154;48.810;9.012;2023-06-22T02:19:40;97202.00;;;19.70
8227;BMP180;4154;48.810;9.012;2023-06-22T02:22:07;97196.00;;;19.70
8227;BMP180;4154;48.810;9.012;2023-06-22T02:24:33;97197.00;;;19.70
8227;BMP180;4154;48.810;9.012;2023-06-22T02:27:00;97207.00;;;19.70
8227;BMP180;4154;48.810;9.012;2023-06-22T02:29:26;97185.00;;;19.70
8227;BMP180;4154;48.810;9.012;2023-06-22T02:31:53;97185.00;;;19.70
8227;BMP180;4154;48.810;9.012;2023-06-22T02:34:19;97168.00;;;19.70
8227;BMP180;4154;48.810;9.012;2023-06-22T02:36:49;97169.00;;;19.60
8227;BMP180;4154;48.810;9.012;2023-06-22T02:39:24;97173.00;;;19.60
8227;BMP180;4154;48.810;9.012;2023-06-22T02:41:51;97175.00;;;19.60
8227;BMP180;4154;48.810;9.012;2023-06-22T02:44:18;97175.00;;;19.50
8227;BMP180;4154;48.810;9.012;2023-06-22T02:46:44;97171.00;;;19.50
8227;BMP180;4154;48.810;9.012;2023-06-22T02:49:11;97172.00;;;19.50
8227;BMP180;4154;48.810;9.012;2023-06-22T02:51:46;97163.00;;;19.50
8227;BMP180;4154;48.810;9.012;2023-06-22T02:54:12;97161.00;;;19.50
8227;BMP180;4154;48.810;9.012;2023-06-22T02:56:38;97165.00;;;19.40
8227;BMP180;4154;48.810;9.012;2023-06-22T02:59:06;97165.00;;;19.30
8227;BMP180;4154;48.810;9.012;2023-06-22T03:01:32;97168.00;;;19.30
8227;BMP180;4154;48.810;9.012;2023-06-22T03:04:11;97173.00;;;19.40
8227;BMP180;4154;48.810;9.012;2023-06-22T03:06:37;97162.00;;;19.40
8227;BMP180;4154;48.810;9.012;2023-06-22T03:09:07;97160.00;;;19.40
8227;BMP180;4154;48.810;9.012;2023-06-22T03:11:34;97154.00;;;19.40
8227;BMP180;4154;48.810;9.012;2023-06-22T03:14:01;97153.00;;;19.40
8227;BMP180;4154;48.810;9.012;2023-06-22T03:16:27;97153.00;;;19.40
8227;BMP180;4154;48.810;9.012;2023-06-22T03:18:53;97160.00;;;19.40
8227;BMP180;4154;48.810;9.012;2023-06-22T03:21:21;97157.00;;;19.30
8227;BMP180;4154;48.810;9.012;2023-06-22T03:23:47;97164.00;;;19.30
8227;BMP180;4154;48.810;9.012;2023-06-22T03:26:16;97159.00;;;19.30
8227;BMP180;4154;48.810;9.012;2023-06-22T03:28:42;97149.00;;;19.20
8227;BMP180;4154;48.810;9.012;2023-06-22T03:31:08;97140.00;;;19.20
8227;BMP180;4154;48.810;9.012;2023-06-22T03:33:34;97151.00;;;19.30
8227;BMP180;4154;48.810;9.012;2023-06-22T03:36:00;97146.00;;;19.30
8227;BMP180;4154;48.810;9.012;2023-06-22T03:38:26;97146.00;;;19.30
8227;BMP180;4154;48.810;9.012;2023-06-22T03:40:53;97144.00;;;19.30
8227;BMP180;4154;48.810;9.012;2023-06-22T03:43:19;97146.00;;;19.20
8227;BMP180;4154;48.810;9.012;2023-06-22T03:45:44;97143.00;;;19.30
8227;BMP180;4154;48.810;9.012;2023-06-22T03:48:12;97135.00;;;19.20
8227;BMP180;4154;48.810;9.012;2023-06-22T03:50:38;97143.00;;;19.20
8227;BMP180;4154;48.810;9.012;2023-06-22T03:53:03;97136.00;;;19.20
8227;BMP180;4154;48.810;9.012;2023-06-22T03:55:29;97131.00;;;19.20
8227;BMP180;4154;48.810;9.012;2023-06-22T03:57:55;97133.00;;;19.10
8227;BMP180;4154;48.810;9.012;2023-06-22T04:00:23;97136.00;;;19.10
8227;BMP180;4154;48.810;9.012;2023-06-22T04:02:49;97134.00;;;19.10
8227;BMP180;4154;48.810;9.012;2023-06-22T04:05:15;97134.00;;;19.10
8227;BMP180;4154;48.810;9.012;2023-06-22T04:07:43;97135.00;;;19.10
8227;BMP180;4154;48.810;9.012;2023-06-22T04:10:09;97133.00;;;19.10
8227;BMP180;4154;48.810;9.012;2023-06-22T04:12:35;97131.00;;;19.20
8227;BMP180;4154;48.810;9.012;2023-06-22T04:15:01;97132.00;;;19.20
8227;BMP180;4154;48.810;9.012;2023-06-22T04:17:27;97130.00;;;19.20
8227;BMP180;4154;48.810;9.012;2023-06-22T04:19:53;97135.00;;;19.20
8227;BMP180;4154;48.810;9.012;2023-06-22T04:22:18;97125.00;;;19.20
8227;BMP180;4154;48.810;9.012;2023-06-22T04:24:45;97117.00;;;19.20
8227;BMP180;4154;48.810;9.012;2023-06-22T04:27:11;97117.00;;;19.20
8227;BMP180;4154;48.810;9.012;2023-06-22T04:29:37;97112.00;;;19.20
8227;BMP180;4154;48.810;9.012;2023-06-22T04:32:04;97110.00;;;19.20
8227;BMP180;4154;48.810;9.012;2023-06-22T04:34:30;97119.00;;;19.30
8227;BMP180;4154;48.810;9.012;2023-06-22T04:36:57;97111.00;;;19.30
8227;BMP180;4154;48.810;9.012;2023-06-22T04:39:23;97113.00;;;19.30
8227;BMP180;4154;48.810;9.012;2023-06-22T04:41:49;97109.00;;;19.30
8227;BMP180;4154;48.810;9.012;2023-06-22T04:44:18;97114.00;;;19.30
8227;BMP180;4154;48.810;9.012;2023-06-22T04:46:51;97107.00;;;19.40
8227;BMP180;4154;48.810;9.012;2023-06-22T04:49:20;97109.00;;;19.50
8227;BMP180;4154;48.810;9.012;2023-06-22T04:51:48;97107.00;;;19.60
8227;BMP180;4154;48.810;9.012;2023-06-22T04:54:14;97091.00;;;19.60
8227;BMP180;4154;48.810;9.012;2023-06-22T04:56:40;97089.00;;;19.60
8227;BMP180;4154;48.810;9.012;2023-06-22T04:59:07;97093.00;;;19.60
8227;BMP180;4154;48.810;9.012;2023-06-22T05:01:33;97097.00;;;19.60
8227;BMP180;4154;48.810;9.012;2023-06-22T05:04:00;97098.00;;;19.60
8227;BMP180;4154;48.810;9.012;2023-06-22T05:06:28;97099.00;;;19.60
8227;BMP180;4154;48.810;9.012;2023-06-22T05:08:55;97104.00;;;19.70
8227;BMP180;4154;48.810;9.012;2023-06-22T05:11:28;97095.00;;;19.70
8227;BMP180;4154;48.810;9.012;2023-06-22T05:13:54;97100.00;;;19.80
8227;BMP180;4154;48.810;9.012;2023-06-22T05:16:21;97100.00;;;19.80
8227;BMP180;4154;48.810;9.012;2023-06-22T05:18:54;97099.00;;;19.90
8227;BMP180;4154;48.810;9.012;2023-06-22T05:21:26;97095.00;;;19.90
8227;BMP180;4154;48.810;9.012;2023-06-22T05:23:53;97084.00;;;20.00
8227;BMP180;4154;48.810;9.012;2023-06-22T05:26:20;97075.00;;;20.00
8227;BMP180;4154;48.810;9.012;2023-06-22T05:28:47;97072.00;;;20.00
8227;BMP180;4154;48.810;9.012;2023-06-22T05:31:14;97080.00;;;20.10
8227;BMP180;4154;48.810;9.012;2023-06-22T05:33:44;97074.00;;;20.10
8227;BMP180;4154;48.810;9.012;2023-06-22T05:36:10;97077.00;;;20.10
8227;BMP180;4154;48.810;9.012;2023-06-22T05:38:38;97074.00;;;20.20
8227;BMP180;4154;48.810;9.012;2023-06-22T05:41:05;97077.00;;;20.20
8227;BMP180;4154;48.810;9.012;2023-06-22T05:43:31;97081.00;;;20.20
8227;BMP180;4154;48.810;9.012;2023-06-22T05:45:59;97079.00;;;20.30
8227;BMP180;4154;48.810;9.012;2023-06-22T05:48:24;97085.00;;;20.20
8227;BMP180;4154;48.810;9.012;2023-06-22T05:50:50;97083.00;;;20.30
8227;BMP180;4154;48.810;9.012;2023-06-22T05:53:16;97083.00;;;20.30
8227;BMP180;4154;48.810;9.012;2023-06-22T05:55:42;97080.00;;;20.40
8227;BMP180;4154;48.810;9.012;2023-06-22T05:58:08;97071.00;;;20.40
8227;BMP180;4154;48.810;9.012;2023-06-22T06:00:34;97074.00;;;20.60
8227;BMP180;4154;48.810;9.012;2023-06-22T06:03:01;97074.00;;;20.60
8227;BMP180;4154;48.810;9.012;2023-06-22T06:05:35;97075.00;;;20.60
8227;BMP180;4154;48.810;9.012;2023-06-22T06:08:03;97083.00;;;20.60
8227;BMP180;4154;48.810;9.012;2023-06-22T06:10:31;97072.00;;;20.60
8227;BMP180;4154;48.810;9.012;2023-06-22T06:12:57;97075.00;;;20.70
8227;BMP180;4154;48.810;9.012;2023-06-22T06:15:24;97070.00;;;20.80
8227;BMP180;4154;48.810;9.012;2023-06-22T06:17:53;97066.00;;;20.80
8227;BMP180;4154;48.810;9.012;2023-06-22T06:20:22;97061.00;;;20.90
8227;BMP180;4154;48.810;9.012;2023-06-22T06:22:48;97065.00;;;21.00
8227;BMP180;4154;48.810;9.012;2023-06-22T06:25:15;97067.00;;;21.00
8227;BMP180;4154;48.810;9.012;2023-06-22T06:27:47;97072.00;;;21.20
8227;BMP180;4154;48.810;9.012;2023-06-22T06:30:14;97068.00;;;21.20
8227;BMP180;4154;48.810;9.012;2023-06-22T06:32:42;97073.00;;;21.20
8227;BMP180;4154;48.810;9.012;2023-06-22T06:35:09;97074.00;;;21.20
8227;BMP180;4154;48.810;9.012;2023-06-22T06:37:41;97072.00;;;21.20
8227;BMP180;4154;48.810;9.012;2023-06-22T06:40:08;97075.00;;;21.20
8227;BMP180;4154;48.810;9.012;2023-06-22T06:42:42;97078.00;;;21.30
8227;BMP180;4154;48.810;9.012;2023-06-22T06:45:21;97082.00;;;21.40
8227;BMP180;4154;48.810;9.012;2023-06-22T06:47:51;97073.00;;;21.40
8227;BMP180;4154;48.810;9.012;2023-06-22T06:50:18;97076.00;;;21.40
8227;BMP180;4154;48.810;9.012;2023-06-22T06:52:44;97080.00;;;21.50
8227;BMP180;4154;48.810;9.012;2023-06-22T06:55:10;97073.00;;;21.70
8227;BMP180;4154;48.810;9.012;2023-06-22T06:57:41;97069.00;;;21.70
8227;BMP180;4154;48.810;9.012;2023-06-22T07:00:12;97072.00;;;21.70
8227;BMP180;4154;48.810;9.012;2023-06-22T07:02:40;97066.00;;;21.80
8227;BMP180;4154;48.810;9.012;2023-06-22T07:05:08;97058.00;;;21.90
8227;BMP180;4154;48.810;9.012;2023-06-22T07:07:34;97063.00;;;21.90
8227;BMP180;4154;48.810;9.012;2023-06-22T07:10:01;97059.00;;;21.90
8227;BMP180;4154;48.810;9.012;2023-06-22T07:12:27;97053.00;;;22.00
8227;BMP180;4154;48.810;9.012;2023-06-22T07:14:53;97052.00;;;22.00
8227;BMP180;4154;48.810;9.012;2023-06-22T07:17:19;97045.00;;;22.10
8227;BMP180;4154;48.810;9.012;2023-06-22T07:19:46;97043.00;;;22.30
8227;BMP180;4154;48.810;9.012;2023-06-22T07:22:12;97037.00;;;22.30
8227;BMP180;4154;48.810;9.012;2023-06-22T07:24:38;97041.00;;;22.40
8227;BMP180;4154;48.810;9.012;2023-06-22T07:27:04;97034.00;;;22.50
8227;BMP180;4154;48.810;9.012;2023-06-22T07:29:32;97042.00;;;22.50
8227;BMP180;4154;48.810;9.012;2023-06-22T07:31:59;97034.00;;;22.50
8227;BMP180;4154;48.810;9.012;2023-06-22T07:34:26;97024.00;;;22.50
8227;BMP180;4154;48.810;9.012;2023-06-22T07:36:52;97021.00;;;22.70
8227;BMP180;4154;48.810;9.012;2023-06-22T07:39:18;97010.00;;;22.60
8227;BMP180;4154;48.810;9.012;2023-06-22T07:41:44;97016.00;;;22.60
8227;BMP180;4154;48.810;9.012;2023-06-22T07:44:10;97010.00;;;22.70
8227;BMP180;4154;48.810;9.012;2023-06-22T07:46:36;97006.00;;;22.70
8227;BMP180;4154;48.810;9.012;2023-06-22T07:49:03;97015.00;;;22.80
8227;BMP180;4154;48.810;9.012;2023-06-22T07:51:29;97001.00;;;23.10
8227;BMP180;4154;48.810;9.012;2023-06-22T07:53:55;97004.00;;;23.10
8227;BMP180;4154;48.810;9.012;2023-06-22T07:56:21;97006.00;;;23.00
8227;BMP180;4154;48.810;9.012;2023-06-22T07:58:47;97019.00;;;23.10
8227;BMP180;4154;48.810;9.012;2023-06-22T08:01:14;97025.00;;;23.10
8227;BMP180;4154;48.810;9.012;2023-06-22T08:03:40;97037.00;;;23.20
8227;BMP180;4154;48.810;9.012;2023-06-22T08:06:07;97032.00;;;23.10
8227;BMP180;4154;48.810;9.012;2023-06-22T08:08:35;97046.00;;;23.30
8227;BMP180;4154;48.810;9.012;2023-06-22T08:11:08;97046.00;;;23.40
8227;BMP180;4154;48.810;9.012;2023-06-22T08:13:35;97043.00;;;23.40
8227;BMP180;4154;48.810;9.012;2023-06-22T08:16:01;97041.00;;;23.50
8227;BMP180;4154;48.810;9.012;2023-06-22T08:18:27;97046.00;;;23.50
8227;BMP180;4154;48.810;9.012;2023-06-22T08:20:53;97054.00;;;23.60
8227;BMP180;4154;48.810;9.012;2023-06-22T08:23:19;97051.00;;;23.60
8227;BMP180;4154;48.810;9.012;2023-06-22T08:25:45;97052.00;;;23.60
8227;BMP180;4154;48.810;9.012;2023-06-22T08:28:11;97068.00;;;23.70
8227;BMP180;4154;48.810;9.012;2023-06-22T08:30:38;97060.00;;;23.70
8227;BMP180;4154;48.810;9.012;2023-06-22T08:33:04;97053.00;;;23.70
8227;BMP180;4154;48.810;9.012;2023-06-22T08:35:30;97051.00;;;23.80
8227;BMP180;4154;48.810;9.012;2023-06-22T08:37:56;97060.00;;;23.80
8227;BMP180;4154;48.810;9.012;2023-06-22T08:40:24;97047.00;;;23.80
8227;BMP180;4154;48.810;9.012;2023-06-22T08:42:50;97048.00;;;23.90
8227;BMP180;4154;48.810;9.012;2023-06-22T08:45:16;97050.00;;;23.90
8227;BMP180;4154;48.810;9.012;2023-06-22T08:47:42;97044.00;;;23.90
8227;BMP180;4154;48.810;9.012;2023-06-22T08:50:10;97053.00;;;24.00
8227;BMP180;4154;48.810;9.012;2023-06-22T08:52:37;97045.00;;;24.00
8227;BMP180;4154;48.810;9.012;2023-06-22T08:55:04;97042.00;;;24.20
8227;BMP180;4154;48.810;9.012;2023-06-22T08:57:30;97047.00;;;24.30
8227;BMP180;4154;48.810;9.012;2023-06-22T08:59:58;97045.00;;;24.30
8227;BMP180;4154;48.810;9.012;2023-06-22T09:02:27;97063.00;;;24.40
8227;BMP180;4154;48.810;9.012;2023-06-22T09:04:58;97082.00;;;24.50
8227;BMP180;4154;48.810;9.012;2023-06-22T09:07:24;97062.00;;;24.50
8227;BMP180;4154;48.810;9.012;2023-06-22T09:09:51;97064.00;;;24.60
8227;BMP180;4154;48.810;9.012;2023-06-22T09:12:18;97059.00;;;24.70
8227;BMP180;4154;48.810;9.012;2023-06-22T09:14:46;97065.00;;;24.70
8227;BMP180;4154;48.810;9.012;2023-06-22T09:17:13;97057.00;;;24.70
8227;BMP180;4154;48.810;9.012;2023-06-22T09:19:39;97046.00;;;24.70
8227;BMP180;4154;48.810;9.012;2023-06-22T09:22:05;97036.00;;;24.80
8227;BMP180;4154;48.810;9.012;2023-06-22T09:24:34;97023.00;;;24.80
8227;BMP180;4154;48.810;9.012;2023-06-22T09:27:00;97021.00;;;24.90
8227;BMP180;4154;48.810;9.012;2023-06-22T09:29:26;97019.00;;;25.00
8227;BMP180;4154;48.810;9.012;2023-06-22T09:31:51;97009.00;;;25.20
8227;BMP180;4154;48.810;9.012;2023-06-22T09:34:19;97005.00;;;25.40
8227;BMP180;4154;48.810;9.012;2023-06-22T09:36:46;97004.00;;;25.50
8227;BMP180;4154;48.810;9.012;2023-06-22T09:39:12;97008.00;;;25.60
8227;BMP180;4154;48.810;9.012;2023-06-22T09:41:38;96991.00;;;25.60
8227;BMP180;4154;48.810;9.012;2023-06-22T09:44:04;96983.00;;;25.70
8227;BMP180;4154;48.810;9.012;2023-06-22T09:46:30;96981.00;;;25.90
8227;BMP180;4154;48.810;9.012;2023-06-22T09:48:56;96974.00;;;25.90
8227;BMP180;4154;48.810;9.012;2023-06-22T09:51:23;96971.00;;;25.90
8227;BMP180;4154;48.810;9.012;2023-06-22T09:53:50;96981.00;;;25.90
8227;BMP180;4154;48.810;9.012;2023-06-22T09:56:16;96978.00;;;26.00
8227;BMP180;4154;48.810;9.012;2023-06-22T09:58:46;96969.00;;;26.00
8227;BMP180;4154;48.810;9.012;2023-06-22T10:01:12;96966.00;;;26.20
8227;BMP180;4154;48.810;9.012;2023-06-22T10:03:40;96967.00;;;26.20
8227;BMP180;4154;48.810;9.012;2023-06-22T10:06:07;96967.00;;;26.30
8227;BMP180;4154;48.810;9.012;2023-06-22T10:08:33;96974.00;;;26.40
8227;BMP180;4154;48.810;9.012;2023-06-22T10:10:59;96956.00;;;26.50
8227;BMP180;4154;48.810;9.012;2023-06-22T10:13:25;96955.00;;;26.60
8227;BMP180;4154;48.810;9.012;2023-06-22T10:15:51;96962.00;;;26.60
8227;BMP180;4154;48.810;9.012;2023-06-22T10:18:21;96957.00;;;26.80
8227;BMP180;4154;48.810;9.012;2023-06-22T10:20:51;96959.00;;;26.80
8227;BMP180;4154;48.810;9.012;2023-06-22T10:23:20;96960.00;;;26.80
8227;BMP180;4154;48.810;9.012;2023-06-22T10:25:46;96955.00;;;27.00
8227;BMP180;4154;48.810;9.012;2023-06-22T10:28:12;96928.00;;;27.10
8227;BMP180;4154;48.810;9.012;2023-06-22T10:30:40;96953.00;;;27.20
8227;BMP180;4154;48.810;9.012;2023-06-22T10:33:12;96950.00;;;27.30
8227;BMP180;4154;48.810;9.012;2023-06-22T10:35:38;96946.00;;;27.30
8227;BMP180;4154;48.810;9.012;2023-06-22T10:38:05;96940.00;;;27.50
8227;BMP180;4154;48.810;9.012;2023-06-22T10:40:31;96944.00;;;27.80
8227;BMP180;4154;48.810;9.012;2023-06-22T10:42:58;96938.00;;;27.90
8227;BMP180;4154;48.810;9.012;2023-06-22T10:45:23;96929.00;;;27.80
8227;BMP180;4154;48.810;9.012;2023-06-22T10:47:49;96948.00;;;27.80
8227;BMP180;4154;48.810;9.012;2023-06-22T10:50:15;96941.00;;;27.90
8227;BMP180;4154;48.810;9.012;2023-06-22T10:52:41;96929.00;;;28.00
8227;BMP180;4154;48.810;9.012;2023-06-22T10:55:09;96927.00;;;28.00
8227;BMP180;4154;48.810;9.012;2023-06-22T10:57:35;96924.00;;;28.00
8227;BMP180;4154;48.810;9.012;2023-06-22T11:00:02;96929.00;;;28.00
8227;BMP180;4154;48.810;9.012;2023-06-22T11:02:31;96935.00;;;28.00
8227;BMP180;4154;48.810;9.012;2023-06-22T11:04:57;96940.00;;;28.00
8227;BMP180;4154;48.810;9.012;2023-06-22T11:07:26;96930.00;;;28.10
8227;BMP180;4154;48.810;9.012;2023-06-22T11:09:53;96947.00;;;28.10
8227;BMP180;4154;48.810;9.012;2023-06-22T11:12:19;96934.00;;;28.20
8227;BMP180;4154;48.810;9.012;2023-06-22T11:14:44;96941.00;;;28.30
8227;BMP180;4154;48.810;9.012;2023-06-22T11:17:10;96944.00;;;28.20
8227;BMP180;4154;48.810;9.012;2023-06-22T11:19:35;96937.00;;;28.20
8227;BMP180;4154;48.810;9.012;2023-06-22T11:22:02;96933.00;;;28.10
8227;BMP180;4154;48.810;9.012;2023-06-22T11:24:28;96934.00;;;28.10
8227;BMP180;4154;48.810;9.012;2023-06-22T11:26:54;96950.00;;;28.10
8227;BMP180;4154;48.810;9.012;2023-06-22T11:29:19;96931.00;;;28.10
8227;BMP180;4154;48.810;9.012;2023-06-22T11:31:45;96933.00;;;28.00
8227;BMP180;4154;48.810;9.012;2023-06-22T11:34:10;96918.00;;;28.00
8227;BMP180;4154;48.810;9.012;2023-06-22T11:36:37;96918.00;;;28.00
8227;BMP180;4154;48.810;9.012;2023-06-22T11:39:02;96905.00;;;28.00
8227;BMP180;4154;48.810;9.012;2023-06-22T11:41:28;96908.00;;;28.00
8227;BMP180;4154;48.810;9.012;2023-06-22T11:43:54;96906.00;;;28.00
8227;BMP180;4154;48.810;9.012;2023-06-22T11:46:19;96921.00;;;28.00
8227;BMP180;4154;48.810;9.012;2023-06-22T11:48:45;96929.00;;;27.90
8227;BMP180;4154;48.810;9.012;2023-06-22T11:51:11;96924.00;;;27.90
8227;BMP180;4154;48.810;9.012;2023-06-22T11:53:37;96921.00;;;27.80
8227;BMP180;4154;48.810;9.012;2023-06-22T11:56:03;96927.00;;;27.80
8227;BMP180;4154;48.810;9.012;2023-06-22T11:58:29;96928.00;;;27.70
8227;BMP180;4154;48.810;9.012;2023-06-22T12:00:55;96945.00;;;27.60
8227;BMP180;4154;48.810;9.012;2023-06-22T12:03:21;96952.00;;;27.50
8227;BMP180;4154;48.810;9.012;2023-06-22T12:05:47;96966.00;;;27.50
8227;BMP180;4154;48.810;9.012;2023-06-22T12:08:13;96966.00;;;27.50
8227;BMP180;4154;48.810;9.012;2023-06-22T12:10:40;96959.00;;;27.50
8227;BMP180;4154;48.810;9.012;2023-06-22T12:13:05;96959.00;;;27.50
8227;BMP180;4154;48.810;9.012;2023-06-22T12:15:31;96950.00;;;27.50
8227;BMP180;4154;48.810;9.012;2023-06-22T12:17:56;96961.00;;;27.50
8227;BMP180;4154;48.810;9.012;2023-06-22T12:20:22;96951.00;;;27.60
8227;BMP180;4154;48.810;9.012;2023-06-22T12:22:48;96956.00;;;27.60
8227;BMP180;4154;48.810;9.012;2023-06-22T12:25:17;96941.00;;;27.60
8227;BMP180;4154;48.810;9.012;2023-06-22T12:27:42;96951.00;;;27.60
8227;BMP180;4154;48.810;9.012;2023-06-22T12:30:09;96944.00;;;27.60
8227;BMP180;4154;48.810;9.012;2023-06-22T12:32:34;96948.00;;;27.50
8227;BMP180;4154;48.810;9.012;2023-06-22T12:35:00;96950.00;;;27.50
8227;BMP180;4154;48.810;9.012;2023-06-22T12:37:26;96951.00;;;27.50
8227;BMP180;4154;48.810;9.012;2023-06-22T12:39:54;96962.00;;;27.60
8227;BMP180;4154;48.810;9.012;2023-06-22T12:42:20;96954.00;;;27.60
8227;BMP180;4154;48.810;9.012;2023-06-22T12:44:46;96959.00;;;27.70
8227;BMP180;4154;48.810;9.012;2023-06-22T12:47:12;96946.00;;;27.70
8227;BMP180;4154;48.810;9.012;2023-06-22T12:49:38;96949.00;;;27.80
8227;BMP180;4154;48.810;9.012;2023-06-22T12:52:09;96949.00;;;27.80
8227;BMP180;4154;48.810;9.012;2023-06-22T12:54:36;96960.00;;;27.80
8227;BMP180;4154;48.810;9.012;2023-06-22T12:57:01;96951.00;;;27.80
8227;BMP180;4154;48.810;9.012;2023-06-22T12:59:27;96962.00;;;27.80
8227;BMP180;4154;48.810;9.012;2023-06-22T13:01:53;96960.00;;;27.80
8227;BMP180;4154;48.810;9.012;2023-06-22T13:04:20;96963.00;;;27.70
8227;BMP180;4154;48.810;9.012;2023-06-22T13:06:46;96966.00;;;27.70
8227;BMP180;4154;48.810;9.012;2023-06-22T13:09:15;96965.00;;;27.60
8227;BMP180;4154;48.810;9.012;2023-06-22T13:11:42;96966.00;;;27.50
8227;BMP180;4154;48.810;9.012;2023-06-22T13:14:08;96967.00;;;27.50
8227;BMP180;4154;48.810;9.012;2023-06-22T13:16:33;96964.00;;;27.60
8227;BMP180;4154;48.810;9.012;2023-06-22T13:18:59;96958.00;;;27.60
8227;BMP180;4154;48.810;9.012;2023-06-22T13:21:25;96953.00;;;27.60
8227;BMP180;4154;48.810;9.012;2023-06-22T13:23:51;96942.00;;;27.70
8227;BMP180;4154;48.810;9.012;2023-06-22T13:26:16;96934.00;;;27.60
8227;BMP180;4154;48.810;9.012;2023-06-22T13:28:42;96932.00;;;27.60
8227;BMP180;4154;48.810;9.012;2023-06-22T13:31:09;96920.00;;;27.60
8227;BMP180;4154;48.810;9.012;2023-06-22T13:33:34;96918.00;;;27.60
8227;BMP180;4154;48.810;9.012;2023-06-22T13:36:00;96907.00;;;27.70
8227;BMP180;4154;48.810;9.012;2023-06-22T13:38:29;96913.00;;;27.70
8227;BMP180;4154;48.810;9.012;2023-06-22T13:40:56;96917.00;;;27.80
8227;BMP180;4154;48.810;9.012;2023-06-22T13:43:24;96908.00;;;27.90
8227;BMP180;4154;48.810;9.012;2023-06-22T13:45:50;96914.00;;;28.00
8227;BMP180;4154;48.810;9.012;2023-06-22T13:48:15;96908.00;;;28.00
8227;BMP180;4154;48.810;9.012;2023-06-22T13:50:41;96906.00;;;28.10
8227;BMP180;4154;48.810;9.012;2023-06-22T13:53:07;96891.00;;;28.10
8227;BMP180;4154;48.810;9.012;2023-06-22T13:55:33;96888.00;;;28.10
8227;BMP180;4154;48.810;9.012;2023-06-22T13:57:58;96874.00;;;28.10
8227;BMP180;4154;48.810;9.012;2023-06-22T14:00:24;96866.00;;;28.00
8227;BMP180;4154;48.810;9.012;2023-06-22T14:02:50;96864.00;;;28.00
8227;BMP180;4154;48.810;9.012;2023-06-22T14:05:16;96862.00;;;28.00
8227;BMP180;4154;48.810;9.012;2023-06-22T14:07:42;96867.00;;;28.00
8227;BMP180;4154;48.810;9.012;2023-06-22T14:10:08;96852.00;;;28.00
8227;BMP180;4154;48.810;9.012;2023-06-22T14:12:34;96847.00;;;28.00
8227;BMP180;4154;48.810;9.012;2023-06-22T14:15:00;96852.00;;;28.00
8227;BMP180;4154;48.810;9.012;2023-06-22T14:17:25;96853.00;;;28.00
8227;BMP180;4154;48.810;9.012;2023-06-22T14:19:52;96866.00;;;28.10
8227;BMP180;4154;48.810;9.012;2023-06-22T14:22:19;96857.00;;;28.20
8227;BMP180;4154;48.810;9.012;2023-06-22T14:24:46;96865.00;;;28.20
8227;BMP180;4154;48.810;9.012;2023-06-22T14:27:12;96867.00;;;28.30
8227;BMP180;4154;48.810;9.012;2023-06-22T14:29:37;96869.00;;;28.40
8227;BMP180;4154;48.810;9.012;2023-06-22T14:32:04;96866.00;;;28.50
8227;BMP180;4154;48.810;9.012;2023-06-22T14:34:32;96854.00;;;28.60